Time;durP1;ratioP1;P1;durP2;ratioP2;P2;SDS_P1;SDS_P2;PMS_P1;PMS_P2;Temp;Humidity;BMP_temperature;BMP_pressure;BME280_temperature;BME280_humidity;BME280_pressure;Samples;Min_cycle;Max_cycle;Signal;HPM_P1;HPM_P2
2022/07/01 00:02:01;;;;;;;4.05;1.67;;;;;;;23.62;71.13;99286.66;6271692;22;20035;-76
2022/07/01 00:04:27;;;;;;;4.13;1.30;;;;;;;23.59;70.38;99284.44;6271328;22;20012;-75
2022/07/01 00:07:13;;;;;;;3.45;1.25;;;;;;;23.59;70.81;99287.13;6271770;22;20015;-76
2022/07/01 00:09:38;;;;;;;5.68;1.50;;;;;;;23.59;70.41;99289.00;6271210;22;20014;-77
2022/07/01 00:12:05;;;;;;;1.48;1.20;;;;;;;23.58;69.09;99304.34;6220007;22;20000;-77
2022/07/01 00:14:31;;;;;;;2.85;1.30;;;;;;;23.58;70.81;99303.50;6271565;22;20004;-75
2022/07/01 00:16:57;;;;;;;3.95;1.35;;;;;;;23.56;73.54;99301.03;6271833;22;20015;-76
2022/07/01 00:19:27;;;;;;;3.88;1.30;;;;;;;23.53;69.74;99298.00;6271247;22;20031;-77
2022/07/01 00:21:53;;;;;;;2.08;1.90;;;;;;;23.43;67.33;99301.25;6271336;22;20373;-76
2022/07/01 00:24:19;;;;;;;2.60;1.13;;;;;;;23.33;66.04;99300.97;6271439;22;20331;-76
2022/07/01 00:26:44;;;;;;;2.88;1.10;;;;;;;23.24;66.49;99299.69;6271664;22;19995;-76
2022/07/01 00:29:10;;;;;;;2.85;1.30;;;;;;;23.17;68.02;99307.84;6269948;22;20012;-76
2022/07/01 00:31:36;;;;;;;1.63;1.27;;;;;;;23.15;70.11;99296.50;6271637;22;20019;-76
2022/07/01 00:34:02;;;;;;;3.50;1.10;;;;;;;23.13;71.88;99301.31;6271310;22;20004;-76
2022/07/01 00:36:28;;;;;;;4.60;1.58;;;;;;;23.09;68.48;99300.09;6270985;22;20011;-76
2022/07/01 00:38:53;;;;;;;4.78;1.67;;;;;;;23.02;70.65;99299.41;6271523;22;20004;-75
2022/07/01 00:41:19;;;;;;;2.08;1.20;;;;;;;23.00;71.64;99300.66;6271582;22;20057;-77
2022/07/01 00:43:45;;;;;;;1.73;1.40;;;;;;;22.96;70.24;99297.63;6271727;22;20042;-77
2022/07/01 00:46:11;;;;;;;1.75;1.52;;;;;;;22.94;71.34;99290.81;6271325;22;20015;-77
2022/07/01 00:48:38;;;;;;;4.13;1.50;;;;;;;22.91;72.52;99292.13;6271182;22;20839;-76
2022/07/01 00:51:04;;;;;;;1.38;1.27;;;;;;;22.92;73.77;99298.28;6271066;22;20015;-77
2022/07/01 00:53:29;;;;;;;2.10;1.25;;;;;;;22.86;73.19;99294.66;6271435;22;20004;-76
2022/07/01 00:55:55;;;;;;;5.18;1.42;;;;;;;22.80;72.60;99290.19;6271523;22;20092;-76
2022/07/01 00:58:21;;;;;;;2.72;1.27;;;;;;;22.76;74.52;99300.59;6271615;22;20091;-76
2022/07/01 01:00:47;;;;;;;1.15;1.05;;;;;;;22.76;75.49;99300.59;6271571;22;20012;-77
2022/07/01 01:03:13;;;;;;;2.15;1.38;;;;;;;22.74;73.85;99313.44;6271724;22;20014;-76
2022/07/01 01:05:40;;;;;;;2.08;1.20;;;;;;;22.67;74.22;99317.25;6243670;22;20038;-76
2022/07/01 01:08:09;;;;;;;3.13;1.50;;;;;;;22.65;76.46;99319.31;6271535;22;20033;-76
2022/07/01 01:10:36;;;;;;;2.00;1.25;;;;;;;22.67;77.12;99317.25;6270817;22;20064;-76
2022/07/01 01:13:03;;;;;;;2.55;1.30;;;;;;;22.70;78.32;99314.09;6271473;22;20008;-76
2022/07/01 01:15:30;;;;;;;2.40;1.50;;;;;;;22.71;77.07;99313.03;6271743;22;20328;-77
2022/07/01 01:17:56;;;;;;;1.83;1.27;;;;;;;22.71;77.36;99315.72;6271801;22;20011;-76
2022/07/01 01:20:22;;;;;;;6.82;1.50;;;;;;;22.71;76.67;99319.25;6244197;22;20016;-77
2022/07/01 01:22:48;;;;;;;2.53;1.48;;;;;;;22.68;77.77;99318.88;6271218;22;20007;-77
2022/07/01 01:25:17;;;;;;;3.00;1.42;;;;;;;22.63;77.10;99321.41;6271302;22;20508;-76
2022/07/01 01:27:43;;;;;;;1.77;1.50;;;;;;;22.58;75.46;99326.66;6243819;22;20015;-76
2022/07/01 01:30:13;;;;;;;3.17;1.73;;;;;;;22.53;74.90;99315.75;6271555;22;20008;-76
2022/07/01 01:32:40;;;;;;;;;;;;;;;22.44;74.46;99316.03;6271568;22;20380;-76
2022/07/01 01:35:08;;;;;;;3.83;1.35;;;;;;;22.39;74.73;99315.91;6271524;22;20252;-76
2022/07/01 01:37:34;;;;;;;2.72;1.35;;;;;;;22.33;78.02;99311.41;6243860;22;20008;-75
2022/07/01 01:39:59;;;;;;;1.70;1.48;;;;;;;22.29;78.68;99304.84;6270979;22;20010;-76
2022/07/01 01:42:25;;;;;;;2.60;1.38;;;;;;;22.25;79.14;99298.31;6272197;22;20008;-76
2022/07/01 01:44:51;;;;;;;2.33;1.45;;;;;;;22.20;79.90;99300.84;6246284;22;20011;-76
2022/07/01 01:47:17;;;;;;;2.95;1.30;;;;;;;22.19;80.09;99304.56;6247069;22;20372;-78
2022/07/01 01:49:43;;;;;;;1.52;1.23;;;;;;;22.14;79.28;99307.09;6273079;22;20008;-76
2022/07/01 01:52:08;;;;;;;2.08;1.70;;;;;;;22.11;78.83;99299.47;6273110;22;20008;-78
2022/07/01 01:54:36;;;;;;;2.95;1.60;;;;;;;22.10;80.64;99305.91;6272926;22;20011;-75
2022/07/01 01:57:03;;;;;;;2.22;1.75;;;;;;;22.13;81.46;99302.78;6273596;22;20019;-76
2022/07/01 01:59:29;;;;;;;2.75;2.00;;;;;;;22.15;83.17;99303.34;6273262;22;20081;-75
2022/07/01 02:01:54;;;;;;;3.08;1.80;;;;;;;22.19;84.16;99309.94;6273486;22;20008;-75
2022/07/01 02:04:20;;;;;;;4.50;2.60;;;;;;;22.21;82.54;99309.69;6273731;22;20003;-75
2022/07/01 02:06:46;;;;;;;4.05;2.40;;;;;;;22.22;83.55;99320.22;6273037;22;20031;-77
2022/07/01 02:09:13;;;;;;;4.70;2.10;;;;;;;22.25;82.54;99309.06;6245840;22;20011;-77
2022/07/01 02:11:38;;;;;;;7.15;2.50;;;;;;;22.27;83.10;99312.31;6273075;22;20745;-77
2022/07/01 02:14:04;;;;;;;2.13;1.65;;;;;;;22.26;79.62;99304.50;6273456;22;20004;-78
2022/07/01 02:16:29;;;;;;;2.67;1.70;;;;;;;22.19;79.88;99304.56;6273060;22;20015;-77
2022/07/01 02:18:55;;;;;;;4.32;1.83;;;;;;;22.09;81.17;99306.13;6273255;22;20007;-78
2022/07/01 02:21:21;;;;;;;2.35;1.60;;;;;;;21.98;83.80;99310.34;6273025;22;20011;-77
2022/07/01 02:23:47;;;;;;;2.35;1.73;;;;;;;21.77;86.18;99310.75;6272998;22;20018;-77
2022/07/01 02:26:13;;;;;;;3.30;1.60;;;;;;;21.52;87.17;99308.91;6273381;22;20011;-77
2022/07/01 02:28:39;;;;;;;3.25;1.38;;;;;;;21.43;87.54;99304.84;6273207;22;20012;-77
2022/07/01 02:31:04;;;;;;;2.00;1.50;;;;;;;21.38;86.01;99302.00;6273291;22;20435;-77
2022/07/01 02:33:31;;;;;;;2.35;1.40;;;;;;;21.37;87.10;99295.00;6272171;22;20033;-77
2022/07/01 02:35:56;;;;;;;3.53;1.60;;;;;;;21.40;87.17;99304.44;6272984;22;20022;-77
2022/07/01 02:38:22;;;;;;;2.80;2.20;;;;;;;21.41;89.31;99306.09;6273306;22;20039;-77
2022/07/01 02:40:48;;;;;;;3.33;2.65;;;;;;;21.37;90.04;99300.34;6245544;22;19999;-76
2022/07/01 02:43:15;;;;;;;1.63;1.52;;;;;;;21.35;91.20;99301.59;6272942;22;20471;-76
2022/07/01 02:45:42;;;;;;;2.58;1.60;;;;;;;21.36;91.13;99309.44;6272695;22;20400;-76
2022/07/01 02:48:08;;;;;;;3.63;1.80;;;;;;;21.29;89.14;99307.84;6246409;22;20090;-77
2022/07/01 02:50:34;;;;;;;2.95;1.90;;;;;;;21.25;89.19;99312.84;6272771;22;20043;-77
2022/07/01 02:52:59;;;;;;;2.15;1.67;;;;;;;21.18;89.57;99314.72;6272999;22;20400;-77
2022/07/01 02:55:25;;;;;;;2.10;1.77;;;;;;;21.12;90.11;99318.25;6272420;22;20011;-77
2022/07/01 02:57:51;;;;;;;4.28;1.58;;;;;;;21.07;91.76;99321.59;6272922;22;20004;-76
2022/07/01 03:00:19;;;;;;;2.03;1.80;;;;;;;21.01;93.08;99318.94;6273192;22;20012;-76
2022/07/01 03:02:45;;;;;;;3.03;1.85;;;;;;;20.95;94.07;99338.56;6245778;22;20010;-74
2022/07/01 03:05:11;;;;;;;2.58;2.25;;;;;;;20.88;95.38;99343.97;6273265;22;20012;-76
2022/07/01 03:07:37;;;;;;;2.20;1.80;;;;;;;20.84;96.05;99338.22;6273003;22;20007;-76
2022/07/01 03:10:04;;;;;;;4.68;1.88;;;;;;;20.82;97.40;99351.03;6272606;22;20423;-76
2022/07/01 03:12:34;;;;;;;4.63;2.05;;;;;;;20.78;97.12;99349.81;6272382;22;20004;-77
2022/07/01 03:15:02;;;;;;;3.53;2.10;;;;;;;20.74;97.80;99343.22;6272987;22;20029;-77
2022/07/01 03:17:29;;;;;;;2.30;2.10;;;;;;;20.71;97.91;99346.31;6272822;22;20086;-77
2022/07/01 03:19:56;;;;;;;2.45;2.17;;;;;;;20.70;98.12;99342.00;6273228;22;20054;-77
2022/07/01 03:22:24;;;;;;;4.03;2.30;;;;;;;20.69;98.90;99334.16;6272303;22;20368;-77
2022/07/01 03:24:51;;;;;;;3.58;2.30;;;;;;;20.68;99.09;99346.75;6272824;22;20014;-77
2022/07/01 03:27:18;;;;;;;3.28;2.47;;;;;;;20.65;100.00;99339.13;6272906;22;20357;-76
2022/07/01 03:29:44;;;;;;;4.30;1.92;;;;;;;20.64;99.50;99345.53;6272645;22;20070;-76
2022/07/01 03:32:10;;;;;;;3.58;1.90;;;;;;;20.60;99.11;99341.63;6273950;22;20422;-76
2022/07/01 03:34:41;;;;;;;4.70;2.03;;;;;;;20.63;99.22;99341.19;6272547;22;20314;-74
2022/07/01 03:37:10;;;;;;;2.50;1.92;;;;;;;20.64;99.29;99342.84;6273103;22;20030;-76
2022/07/01 03:39:37;;;;;;;3.58;2.03;;;;;;;20.65;99.91;99341.81;6272311;22;20058;-75
2022/07/01 03:42:04;;;;;;;2.30;2.10;;;;;;;20.66;99.57;99346.16;6245773;22;20360;-76
2022/07/01 03:44:29;;;;;;;3.95;2.08;;;;;;;20.67;99.33;99331.72;6272383;22;20008;-75
2022/07/01 03:46:55;;;;;;;4.57;1.85;;;;;;;20.66;100.00;99330.06;6245909;22;20057;-76
2022/07/01 03:49:22;;;;;;;3.40;2.20;;;;;;;20.68;100.00;99340.53;6272559;22;20019;-76
2022/07/01 03:51:49;;;;;;;2.75;2.33;;;;;;;20.63;99.50;99335.00;6272467;22;20034;-76
2022/07/01 03:54:29;;;;;;;3.80;1.95;;;;;;;20.55;97.09;99343.31;6273006;22;20664;-76
2022/07/01 03:56:56;;;;;;;3.35;1.92;;;;;;;20.54;98.05;99342.47;6273036;22;20388;-76
2022/07/01 03:59:21;;;;;;;2.50;2.30;;;;;;;20.55;96.95;99343.31;6272421;22;20321;-76
2022/07/01 04:01:47;;;;;;;4.10;2.20;;;;;;;20.55;96.73;99344.13;6272644;22;20023;-75
2022/07/01 04:04:13;;;;;;;3.35;2.00;;;;;;;20.56;97.31;99344.97;6272610;22;20456;-76
2022/07/01 04:06:38;;;;;;;5.60;2.22;;;;;;;20.53;96.36;99356.91;6272276;22;20000;-74
2022/07/01 04:09:04;;;;;;;3.83;2.05;;;;;;;20.41;96.30;99353.25;6273082;22;20057;-75
2022/07/01 04:11:31;;;;;;;3.88;1.73;;;;;;;20.36;96.17;99351.19;6271827;22;20015;-75
2022/07/01 04:13:57;;;;;;;1.83;1.60;;;;;;;20.37;96.45;99352.03;6271980;22;20023;-75
2022/07/01 04:16:23;;;;;;;3.92;1.70;;;;;;;20.36;96.99;99351.19;6271905;22;20079;-77
2022/07/01 04:18:49;;;;;;;3.80;2.15;;;;;;;20.40;97.47;99357.78;6271864;22;20420;-76
2022/07/01 04:23:59;;;;;;;2.28;1.90;;;;;;;20.49;96.61;99358.38;6271863;22;20016;-76
2022/07/01 04:26:25;;;;;;;2.22;1.80;;;;;;;20.50;95.47;99359.22;6244394;22;20734;-76
2022/07/01 04:28:52;;;;;;;1.80;1.70;;;;;;;20.50;95.45;99351.97;6271584;22;20130;-77
2022/07/01 04:31:18;;;;;;;2.85;1.85;;;;;;;20.53;96.71;99351.56;6271918;22;20008;-77
2022/07/01 04:33:44;;;;;;;3.78;1.80;;;;;;;20.54;96.50;99353.19;6270820;22;20008;-77
2022/07/01 04:36:10;;;;;;;4.90;1.80;;;;;;;20.57;96.13;99355.44;6271523;22;20020;-76
2022/07/01 04:38:35;;;;;;;4.25;2.35;;;;;;;20.61;97.21;99359.38;6271629;22;20000;-77
2022/07/01 04:43:46;;;;;;;4.60;2.17;;;;;;;20.68;97.70;99353.94;6271469;22;20011;-77
2022/07/01 04:46:11;;;;;;;3.47;2.75;;;;;;;20.69;96.47;99369.00;6271515;22;20007;-76
2022/07/01 04:48:37;;;;;;;2.90;1.90;;;;;;;20.71;97.54;99369.63;6271339;22;20011;-77
2022/07/01 04:51:02;;;;;;;5.90;1.92;;;;;;;20.71;97.38;99365.09;6271279;22;20008;-76
2022/07/01 04:53:28;;;;;;;4.65;1.80;;;;;;;20.75;99.80;99371.66;6271542;22;20011;-76
2022/07/01 04:55:53;;;;;;;2.72;2.10;;;;;;;20.77;98.86;99363.41;6271295;22;20003;-77
2022/07/01 04:58:19;;;;;;;3.20;2.47;;;;;;;20.77;98.09;99358.88;6271668;22;20007;-77
2022/07/01 05:00:45;;;;;;;1.90;1.70;;;;;;;20.83;97.99;99355.34;6271149;22;20014;-77
2022/07/01 05:03:10;;;;;;;3.92;2.15;;;;;;;20.89;96.96;99350.16;6271189;22;20302;-76
2022/07/01 05:05:36;;;;;;;2.42;2.00;;;;;;;20.92;96.16;99352.41;6270628;22;20103;-76
2022/07/01 05:08:02;;;;;;;2.50;1.92;;;;;;;20.97;95.55;99352.59;6271316;22;20049;-77
2022/07/01 05:10:28;;;;;;;3.60;2.15;;;;;;;21.05;97.28;99352.34;6270453;22;20090;-77
2022/07/01 05:12:54;;;;;;;2.40;2.20;;;;;;;21.13;96.83;99344.03;6271217;22;20007;-76
2022/07/01 05:15:20;;;;;;;3.67;1.83;;;;;;;21.22;98.49;99348.13;6271234;22;19999;-77
2022/07/01 05:23:14;;;;;;;8.55;2.65;;;;;;;21.43;95.02;99346.97;6245996;22;20119;-77
2022/07/01 05:25:39;;;;;;;3.42;1.77;;;;;;;21.44;92.94;99352.09;6272782;22;20036;-76
2022/07/01 05:28:05;;;;;;;4.50;1.77;;;;;;;21.49;93.05;99354.97;6273040;22;20004;-76
2022/07/01 05:30:30;;;;;;;3.47;2.30;;;;;;;21.55;93.82;99351.44;6272750;22;20300;-77
2022/07/01 05:32:56;;;;;;;2.65;1.65;;;;;;;21.60;93.06;99365.03;6272670;22;20031;-76
2022/07/01 05:35:21;;;;;;;2.60;1.95;;;;;;;21.68;93.94;99360.44;6245340;22;20074;-77
2022/07/01 05:37:47;;;;;;;3.38;1.73;;;;;;;21.71;94.65;99360.78;6273061;22;20014;-76
2022/07/01 05:40:13;;;;;;;4.15;2.13;;;;;;;21.73;94.40;99357.91;6272924;22;20007;-77
2022/07/01 05:42:38;;;;;;;4.57;2.00;;;;;;;21.73;94.39;99353.34;6272641;22;20016;-75
2022/07/01 05:45:04;;;;;;;1.98;1.73;;;;;;;21.73;93.49;99352.53;6273132;22;20008;-76
2022/07/01 05:47:30;;;;;;;3.45;1.70;;;;;;;21.74;93.28;99354.16;6272406;22;20404;-76
2022/07/01 05:49:55;;;;;;;4.80;1.73;;;;;;;21.80;93.46;99350.59;6270822;22;20004;-77
2022/07/01 05:52:21;;;;;;;1.90;1.75;;;;;;;21.84;91.91;99343.75;6272520;22;20004;-77
2022/07/01 05:54:47;;;;;;;2.50;1.85;;;;;;;21.86;92.42;99352.38;6272983;22;20023;-75
2022/07/01 05:57:12;;;;;;;3.22;1.55;;;;;;;21.88;93.61;99351.13;6272870;22;20016;-76
2022/07/01 05:59:38;;;;;;;2.90;2.03;;;;;;;21.94;94.46;99349.44;6272229;22;20011;-76
2022/07/01 06:02:04;;;;;;;3.45;1.63;;;;;;;22.01;96.30;99352.91;6273280;22;20041;-76
2022/07/01 06:04:29;;;;;;;3.95;1.55;;;;;;;22.02;95.10;99359.94;6272456;22;20034;-77
2022/07/01 06:06:55;;;;;;;3.08;1.70;;;;;;;22.02;95.35;99355.41;6272816;22;20008;-76
2022/07/01 06:09:21;;;;;;;1.75;1.45;;;;;;;22.08;97.03;99356.38;6273040;22;20012;-76
2022/07/01 06:11:49;;;;;;;2.67;1.73;;;;;;;22.16;98.55;99358.75;6272481;22;20074;-77
2022/07/01 06:14:15;;;;;;;3.65;2.00;;;;;;;22.28;99.28;99356.16;6271482;22;20011;-76
2022/07/01 06:16:50;;;;;;;2.83;1.90;;;;;;;22.38;100.00;99354.56;6270721;22;20061;-76
2022/07/01 06:19:15;;;;;;;2.05;1.85;;;;;;;22.48;100.00;99350.56;6272223;22;20064;-75
2022/07/01 06:21:41;;;;;;;2.65;1.85;;;;;;;22.53;96.88;99354.22;6271848;22;20011;-77
2022/07/01 06:24:06;;;;;;;3.47;1.70;;;;;;;22.59;97.37;99347.13;6272753;22;20008;-75
2022/07/01 06:26:32;;;;;;;5.43;2.28;;;;;;;22.67;97.25;99344.13;6272391;22;20012;-78
2022/07/01 06:28:57;;;;;;;2.50;1.85;;;;;;;22.73;97.22;99351.34;6272411;22;20062;-76
2022/07/01 06:31:23;;;;;;;2.20;1.70;;;;;;;22.82;98.00;99348.09;6272651;22;20066;-76
2022/07/01 06:33:49;;;;;;;2.85;2.00;;;;;;;22.85;97.40;99346.84;6245832;22;20014;-76
2022/07/01 06:36:16;;;;;;;2.95;2.00;;;;;;;22.94;96.40;99347.31;6272347;22;20498;-76
2022/07/01 06:38:41;;;;;;;2.65;1.73;;;;;;;23.03;97.00;99344.06;6272441;22;20011;-77
2022/07/01 06:43:51;;;;;;;2.97;2.22;;;;;;;23.06;94.73;99350.88;6272884;22;20420;-77
2022/07/01 06:46:17;;;;;;;1.80;1.70;;;;;;;23.12;95.35;99353.50;6272891;22;20007;-76
2022/07/01 06:48:42;;;;;;;3.92;2.28;;;;;;;23.17;95.97;99364.38;6272497;22;20057;-76
2022/07/01 06:51:08;;;;;;;4.15;2.60;;;;;;;23.08;94.96;99362.25;6271954;22;20015;-77
2022/07/01 06:53:34;;;;;;;2.97;2.63;;;;;;;23.11;94.55;99368.00;6272146;22;20015;-76
2022/07/01 06:55:59;;;;;;;4.45;2.80;;;;;;;23.13;93.82;99365.91;6272294;22;20010;-76
2022/07/01 06:58:25;;;;;;;3.10;2.78;;;;;;;23.13;94.85;99365.06;6272445;22;20012;-76
2022/07/01 07:00:50;;;;;;;3.67;3.03;;;;;;;23.09;95.24;99372.78;6245852;22;20007;-76
2022/07/01 07:03:16;;;;;;;4.25;3.53;;;;;;;23.15;96.18;99374.56;6272729;22;20043;-75
2022/07/01 07:05:42;;;;;;;8.07;3.20;;;;;;;23.19;96.01;99369.53;6244690;22;20011;-75
2022/07/01 07:08:07;;;;;;;4.55;3.15;;;;;;;23.22;97.15;99377.97;6245366;22;20039;-76
2022/07/01 07:10:33;;;;;;;4.70;4.20;;;;;;;23.17;96.22;99377.84;6271949;22;20007;-76
2022/07/01 07:12:58;;;;;;;6.32;2.90;;;;;;;23.12;97.41;99380.41;6245041;22;20142;-76
2022/07/01 07:15:24;;;;;;;3.13;2.60;;;;;;;23.17;98.21;99377.84;6272494;22;20018;-76
2022/07/01 07:17:49;;;;;;;4.13;2.80;;;;;;;23.30;98.75;99376.03;6272660;22;20035;-76
2022/07/01 07:20:15;;;;;;;4.53;3.17;;;;;;;23.33;96.76;99386.34;6272468;22;20019;-76
2022/07/01 07:22:41;;;;;;;5.05;3.00;;;;;;;23.25;97.34;99380.22;6271698;22;20011;-76
2022/07/01 07:25:06;;;;;;;4.25;3.25;;;;;;;23.31;98.19;99383.06;6271814;22;20011;-75
2022/07/01 07:27:32;;;;;;;9.38;2.88;;;;;;;23.34;97.90;99385.28;6244579;22;20091;-77
2022/07/01 07:29:58;;;;;;;3.40;3.00;;;;;;;23.31;98.01;99383.06;6244911;22;20015;-78
2022/07/01 07:32:23;;;;;;;6.68;3.55;;;;;;;23.34;98.78;99377.19;6272349;22;20000;-77
2022/07/01 07:34:49;;;;;;;3.72;2.90;;;;;;;23.42;99.01;99382.25;6272497;22;20008;-76
2022/07/01 07:37:14;;;;;;;2.75;2.40;;;;;;;23.52;99.24;99379.84;6271657;22;20019;-75
2022/07/01 07:39:40;;;;;;;4.70;3.00;;;;;;;23.47;98.43;99379.72;6271630;22;20130;-77
2022/07/01 07:42:05;;;;;;;3.20;2.90;;;;;;;23.47;97.96;99382.41;6272216;22;20062;-77
2022/07/01 07:44:33;;;;;;;3.00;2.70;;;;;;;23.56;98.13;99386.44;6244519;22;20095;-77
2022/07/01 07:46:59;;;;;;;4.63;3.53;;;;;;;23.61;97.69;99389.25;6272841;22;20387;-77
2022/07/01 07:49:25;;;;;;;7.47;3.35;;;;;;;23.65;97.25;99382.34;6272433;22;20012;-76
2022/07/01 07:51:52;;;;;;;2.70;2.50;;;;;;;23.73;97.22;99379.31;6272387;22;20309;-76
2022/07/01 07:54:18;;;;;;;3.40;2.78;;;;;;;23.86;96.62;99378.25;6271766;22;20405;-76
2022/07/01 07:56:43;;;;;;;5.45;3.38;;;;;;;23.92;95.92;99382.72;6271485;22;20124;-76
2022/07/01 07:59:09;;;;;;;3.80;2.63;;;;;;;24.03;95.63;99379.25;6272039;22;20004;-77
2022/07/01 08:01:35;;;;;;;5.22;2.63;;;;;;;24.09;95.56;99381.00;6271924;22;20095;-76
2022/07/01 08:04:00;;;;;;;3.47;2.70;;;;;;;24.09;94.70;99387.19;6272148;22;20019;-76
2022/07/01 08:06:26;;;;;;;3.65;2.80;;;;;;;24.07;94.15;99388.50;6271706;22;20008;-77
2022/07/01 08:08:52;;;;;;;6.07;3.10;;;;;;;24.12;94.03;99385.09;6271674;22;20008;-77
2022/07/01 08:11:23;;;;;;;5.82;2.83;;;;;;;24.06;94.34;99386.84;6270040;22;20008;-76
2022/07/01 08:13:49;;;;;;;4.50;2.70;;;;;;;24.11;93.85;99389.66;6271764;22;20004;-77
2022/07/01 08:16:15;;;;;;;5.80;3.20;;;;;;;24.14;93.58;99388.38;6269737;22;20035;-77
2022/07/01 08:18:40;;;;;;;3.95;2.72;;;;;;;24.22;93.35;99390.72;6271701;22;20016;-77
2022/07/01 08:21:06;;;;;;;4.50;2.60;;;;;;;24.25;93.03;99391.09;6271484;22;20027;-77
2022/07/01 08:23:31;;;;;;;3.72;2.58;;;;;;;24.26;92.57;99386.53;6271397;22;20007;-75
2022/07/01 08:25:57;;;;;;;3.42;2.80;;;;;;;24.35;93.81;99391.31;6271178;22;20042;-75
2022/07/01 08:28:23;;;;;;;4.40;3.50;;;;;;;24.39;92.79;99386.25;6271259;22;20019;-77
2022/07/01 08:30:48;;;;;;;5.13;2.70;;;;;;;24.40;93.13;99387.91;6272001;22;19999;-77
2022/07/01 08:33:14;;;;;;;6.00;2.72;;;;;;;24.50;91.21;99388.16;6271404;22;20018;-76
2022/07/01 08:35:40;;;;;;;4.30;2.63;;;;;;;24.57;90.25;99398.78;6271415;22;20015;-77
2022/07/01 08:38:06;;;;;;;3.75;2.50;;;;;;;24.56;89.00;99391.78;6271849;22;20062;-77
2022/07/01 08:40:33;;;;;;;3.28;2.28;;;;;;;24.64;88.44;99389.53;6244008;22;20069;-76
2022/07/01 08:43:00;;;;;;;2.80;2.20;;;;;;;24.70;86.94;99393.97;6271631;22;20003;-75
2022/07/01 08:45:28;;;;;;;2.97;2.40;;;;;;;24.76;87.11;99384.91;6271743;22;20430;-76
2022/07/01 08:47:57;;;;;;;3.92;3.17;;;;;;;24.77;89.12;99383.88;6272345;22;20027;-77
2022/07/01 08:50:27;;;;;;;3.72;3.13;;;;;;;24.73;90.54;99388.09;6267542;22;20788;-76
2022/07/01 08:52:52;;;;;;;4.93;2.85;;;;;;;24.77;90.75;99391.13;6270624;22;20023;-76
2022/07/01 08:55:20;;;;;;;5.63;3.53;;;;;;;24.80;90.60;99394.16;6271693;22;20018;-77
2022/07/01 08:57:46;;;;;;;4.70;3.22;;;;;;;24.87;90.13;99394.84;6271382;22;20340;-77
2022/07/01 09:00:12;;;;;;;4.28;3.22;;;;;;;24.87;90.26;99384.06;6271091;22;20384;-77
2022/07/01 09:02:57;;;;;;;6.80;3.17;;;;;;;24.93;89.47;99384.19;6271519;22;20012;-77
2022/07/01 09:05:25;;;;;;;5.80;3.17;;;;;;;24.90;90.39;99387.38;6271295;22;20392;-78
2022/07/01 09:08:04;;;;;;;4.75;3.40;;;;;;;24.83;90.20;99387.47;6272213;22;20325;-77
2022/07/01 09:10:33;;;;;;;6.15;3.60;;;;;;;24.94;90.49;99378.56;6271737;22;20393;-76
2022/07/01 09:13:05;;;;;;;8.63;3.30;;;;;;;24.97;90.66;99369.19;6271870;22;20324;-77
2022/07/01 09:15:31;;;;;;;6.50;2.90;;;;;;;25.04;87.58;99372.53;6271489;22;20328;-78
2022/07/01 09:18:12;;;;;;;3.97;2.33;;;;;;;25.12;85.79;99364.06;6272016;22;20007;-77
2022/07/01 09:20:41;;;;;;;6.00;3.42;;;;;;;25.25;85.80;99369.16;6271664;22;20011;-77
2022/07/01 09:23:11;;;;;;;3.60;2.63;;;;;;;25.32;85.98;99367.13;6271845;22;20012;-77
2022/07/01 09:25:43;;;;;;;5.63;2.90;;;;;;;25.38;86.84;99363.47;6271859;22;20012;-77
2022/07/01 09:28:15;;;;;;;6.20;2.88;;;;;;;25.49;85.94;99361.75;6270943;22;20015;-77
2022/07/01 09:30:45;;;;;;;4.28;2.95;;;;;;;25.57;86.47;99369.47;6271302;22;20007;-76
2022/07/01 09:33:19;;;;;;;3.35;2.80;;;;;;;25.69;85.83;99373.75;6244879;22;20023;-75
2022/07/01 09:35:49;;;;;;;3.58;3.30;;;;;;;25.71;83.38;99378.91;6271353;22;20976;-76
2022/07/01 09:38:16;;;;;;;4.43;3.33;;;;;;;25.72;83.63;99363.53;6244791;22;20118;-75
2022/07/01 09:40:59;;;;;;;4.15;3.30;;;;;;;25.77;84.72;99355.50;6271550;22;20003;-76
2022/07/01 09:43:26;;;;;;;6.00;3.80;;;;;;;25.88;84.96;99359.97;6271195;22;20328;-76
2022/07/01 09:46:09;;;;;;;5.47;3.30;;;;;;;25.90;84.65;99369.50;6271926;22;20066;-75
2022/07/01 09:48:34;;;;;;;4.20;3.00;;;;;;;26.01;83.82;99373.16;6270949;22;20035;-76
2022/07/01 09:51:01;;;;;;;5.18;3.10;;;;;;;26.12;84.38;99372.25;6272081;22;20015;-76
2022/07/01 09:53:27;;;;;;;4.38;3.75;;;;;;;26.20;81.87;99374.56;6271378;22;20016;-76
2022/07/01 09:55:52;;;;;;;6.93;4.15;;;;;;;26.25;80.92;99368.41;6272026;22;20046;-76
2022/07/01 09:58:18;;;;;;;4.50;3.20;;;;;;;26.25;80.83;99377.34;6271381;22;20019;-75
2022/07/01 10:00:44;;;;;;;5.47;3.38;;;;;;;26.30;78.98;99374.72;6271829;22;20360;-76
2022/07/01 10:03:11;;;;;;;8.13;3.80;;;;;;;26.28;80.80;99374.13;6272246;22;20016;-76
2022/07/01 10:05:49;;;;;;;3.72;3.22;;;;;;;26.32;83.08;99379.88;6272995;22;20083;-77
2022/07/01 10:08:37;;;;;;;5.38;3.60;;;;;;;26.49;78.09;99376.06;6246834;22;20111;-75
2022/07/01 10:11:13;;;;;;;4.03;3.70;;;;;;;26.51;78.74;99375.00;6245907;22;20400;-76
2022/07/01 10:13:41;;;;;;;5.30;3.35;;;;;;;26.53;79.80;99362.03;6272985;22;20178;-75
2022/07/01 10:16:08;;;;;;;6.15;3.20;;;;;;;26.62;80.72;99368.66;6246731;22;20012;-76
2022/07/01 10:18:34;;;;;;;5.15;3.83;;;;;;;26.70;81.01;99365.50;6272770;22;20018;-75
2022/07/01 10:21:01;;;;;;;3.83;3.22;;;;;;;26.82;80.70;99358.06;6273393;22;20364;-77
2022/07/01 10:23:42;;;;;;;5.40;3.53;;;;;;;26.91;79.11;99361.19;6273157;22;20012;-77
2022/07/01 10:26:08;;;;;;;5.90;3.10;;;;;;;26.95;80.09;99355.00;6273728;22;20336;-77
2022/07/01 10:28:43;;;;;;;4.47;3.60;;;;;;;26.96;80.04;99353.94;6245988;22;20008;-76
2022/07/01 10:31:16;;;;;;;4.65;3.40;;;;;;;27.04;78.91;99358.88;6273098;22;20515;-77
2022/07/01 10:33:45;;;;;;;10.13;4.60;;;;;;;26.98;78.22;99354.47;6272934;22;20016;-75
2022/07/01 10:36:32;;;;;;;5.47;3.60;;;;;;;26.96;76.82;99353.94;6246018;22;20091;-76
2022/07/01 10:39:06;;;;;;;3.53;3.22;;;;;;;26.96;79.04;99353.94;6246321;22;20309;-76
2022/07/01 10:41:41;;;;;;;6.40;3.67;;;;;;;26.94;79.69;99347.94;6246202;22;20087;-77
2022/07/01 10:44:14;;;;;;;6.88;3.35;;;;;;;26.97;80.11;99350.16;6246651;22;20011;-76
2022/07/01 10:46:49;;;;;;;3.35;3.05;;;;;;;27.06;78.14;99347.78;6245785;22;20320;-78
2022/07/01 10:49:20;;;;;;;5.63;3.95;;;;;;;27.09;76.38;99341.88;6273189;22;20333;-76
2022/07/01 10:51:51;;;;;;;4.90;3.03;;;;;;;27.12;74.41;99346.78;6246024;22;20027;-76
2022/07/01 10:57:19;;;;;;;4.65;3.20;;;;;;;27.20;76.27;99333.59;6246351;22;20337;-78
2022/07/01 11:00:00;;;;;;;3.53;3.03;;;;;;;27.22;75.27;99344.16;6272984;22;20008;-78
2022/07/01 11:02:43;;;;;;;3.40;3.10;;;;;;;27.24;75.12;99345.56;6273196;22;20012;-76
2022/07/01 11:05:13;;;;;;;7.07;3.40;;;;;;;27.34;74.33;99344.81;6272630;22;20019;-76
2022/07/01 11:07:42;;;;;;;4.72;2.90;;;;;;;27.37;74.88;99340.78;6273395;22;20345;-77
2022/07/01 11:10:10;;;;;;;6.93;3.83;;;;;;;27.38;75.45;99339.72;6273031;22;20087;-77
2022/07/01 11:12:37;;;;;;;3.80;3.10;;;;;;;27.62;73.34;99336.47;6272986;22;20348;-76
2022/07/01 11:15:07;;;;;;;5.13;2.97;;;;;;;27.63;73.48;99342.66;6246009;22;20340;-76
2022/07/01 11:17:42;;;;;;;4.75;3.65;;;;;;;27.62;74.92;99336.47;6272581;22;20062;-76
2022/07/01 11:20:10;;;;;;;5.88;3.40;;;;;;;27.59;73.28;99336.13;6272318;22;20043;-78
2022/07/01 11:22:36;;;;;;;5.93;3.10;;;;;;;27.64;71.62;99336.19;6272531;22;20041;-77
2022/07/01 11:25:04;;;;;;;3.40;3.10;;;;;;;27.67;70.98;99324.81;6273240;22;20043;-75
2022/07/01 11:27:31;;;;;;;4.35;3.13;;;;;;;27.85;67.57;99340.69;6273050;22;20008;-76
2022/07/01 11:29:59;;;;;;;3.33;3.00;;;;;;;27.88;68.71;99334.72;6273341;22;20310;-76
2022/07/01 11:32:28;;;;;;;3.95;2.90;;;;;;;27.83;69.48;99336.59;6272718;22;20011;-75
2022/07/01 11:34:54;;;;;;;3.67;3.38;;;;;;;27.86;70.74;99336.09;6245837;22;20074;-77
2022/07/01 11:40:12;;;;;;;5.72;2.67;;;;;;;28.06;72.06;99328.91;6272923;22;20317;-76
2022/07/01 11:42:39;;;;;;;3.42;3.03;;;;;;;28.15;71.75;99329.25;6272571;22;20007;-76
2022/07/01 11:45:07;;;;;;;3.28;2.97;;;;;;;28.32;69.73;99329.06;6273128;22;20076;-78
2022/07/01 11:47:33;;;;;;;4.38;3.30;;;;;;;28.25;69.02;99323.06;6272568;22;20310;-77
2022/07/01 11:49:59;;;;;;;5.70;3.00;;;;;;;28.40;69.23;99315.81;6272192;22;20007;-76
2022/07/01 11:52:26;;;;;;;4.25;3.15;;;;;;;28.45;70.23;99318.53;6271938;22;20090;-76
2022/07/01 11:54:54;;;;;;;4.30;2.85;;;;;;;28.48;68.73;99311.78;6272263;22;20011;-76